Bossangoa, Central African Republic
Current Conditions -  °F | °C
As of 6:00 AM on Sunday 23 Nov 2014 (Local Time) from FEFF Reporting Station
Broken Clouds Broken Clouds  
Wind Chill: 70°   Ceiling: 15000
Heat Index: 70°   Visibility: 6mi
Dew Point: 68°   Wind: 2mph
Humidity: 94%   Direction: NA
Pressure: 29.91"   Gusts: NA
Location:  6.5°N, 17.46°E
Report Text: FEFF 230500Z VRB02KT 9999 FEW003 BKN150 21/20 Q1013 NOSIG
Loading
Personal Weather Stations






























Interactive Weather Map New forecast layout! Learn more

10-Day Weather Forecast

Advertisements
Track Severe Weather on mobile